sensor_id;sensor_type;location;lat;lon;timestamp;P1;durP1;ratioP1;P2;durP2;ratioP2
80854;SDS011;70272;49.222;-122.892;2023-06-05T00:02:07;1.23;;;1.10;;
80854;SDS011;70272;49.222;-122.892;2023-06-05T00:04:34;1.65;;;0.90;;
80854;SDS011;70272;49.222;-122.892;2023-06-05T00:07:01;1.30;;;1.20;;
80854;SDS011;70272;49.222;-122.892;2023-06-05T00:09:28;1.63;;;1.08;;
80854;SDS011;70272;49.222;-122.892;2023-06-05T00:11:54;1.33;;;1.10;;
80854;SDS011;70272;49.222;-122.892;2023-06-05T00:14:21;1.83;;;1.20;;
80854;SDS011;70272;49.222;-122.892;2023-06-05T00:16:47;1.35;;;1.00;;
80854;SDS011;70272;49.222;-122.892;2023-06-05T00:19:16;1.60;;;1.20;;
80854;SDS011;70272;49.222;-122.892;2023-06-05T00:21:43;2.60;;;1.20;;
80854;SDS011;70272;49.222;-122.892;2023-06-05T00:24:09;2.22;;;1.23;;
80854;SDS011;70272;49.222;-122.892;2023-06-05T00:26:36;1.23;;;1.10;;
80854;SDS011;70272;49.222;-122.892;2023-06-05T00:29:02;1.38;;;1.20;;
80854;SDS011;70272;49.222;-122.892;2023-06-05T00:31:28;1.67;;;1.25;;
80854;SDS011;70272;49.222;-122.892;2023-06-05T00:33:55;1.23;;;1.13;;
80854;SDS011;70272;49.222;-122.892;2023-06-05T00:36:21;1.55;;;1.10;;
80854;SDS011;70272;49.222;-122.892;2023-06-05T00:38:51;1.52;;;1.20;;
80854;SDS011;70272;49.222;-122.892;2023-06-05T00:41:17;1.52;;;1.27;;
80854;SDS011;70272;49.222;-122.892;2023-06-05T00:43:44;2.47;;;1.23;;
80854;SDS011;70272;49.222;-122.892;2023-06-05T00:46:10;1.63;;;1.00;;
80854;SDS011;70272;49.222;-122.892;2023-06-05T00:48:37;1.67;;;1.20;;
80854;SDS011;70272;49.222;-122.892;2023-06-05T00:51:04;2.42;;;1.10;;
80854;SDS011;70272;49.222;-122.892;2023-06-05T00:53:32;1.83;;;1.23;;
80854;SDS011;70272;49.222;-122.892;2023-06-05T00:55:58;1.50;;;1.20;;
80854;SDS011;70272;49.222;-122.892;2023-06-05T00:58:27;2.25;;;1.30;;
80854;SDS011;70272;49.222;-122.892;2023-06-05T01:00:55;1.88;;;1.30;;
80854;SDS011;70272;49.222;-122.892;2023-06-05T01:03:23;1.77;;;1.67;;
80854;SDS011;70272;49.222;-122.892;2023-06-05T01:05:50;1.73;;;1.20;;
80854;SDS011;70272;49.222;-122.892;2023-06-05T01:08:16;1.10;;;1.00;;
80854;SDS011;70272;49.222;-122.892;2023-06-05T01:10:46;1.75;;;1.17;;
80854;SDS011;70272;49.222;-122.892;2023-06-05T01:13:23;1.27;;;1.00;;
80854;SDS011;70272;49.222;-122.892;2023-06-05T01:15:51;1.20;;;1.10;;
80854;SDS011;70272;49.222;-122.892;2023-06-05T01:18:20;2.90;;;1.30;;
80854;SDS011;70272;49.222;-122.892;2023-06-05T01:20:48;2.08;;;1.40;;
80854;SDS011;70272;49.222;-122.892;2023-06-05T01:23:14;1.77;;;1.50;;
80854;SDS011;70272;49.222;-122.892;2023-06-05T01:25:41;2.13;;;1.40;;
80854;SDS011;70272;49.222;-122.892;2023-06-05T01:33:33;1.52;;;1.23;;
80854;SDS011;70272;49.222;-122.892;2023-06-05T01:36:08;2.17;;;1.27;;
80854;SDS011;70272;49.222;-122.892;2023-06-05T01:38:36;1.98;;;1.17;;
80854;SDS011;70272;49.222;-122.892;2023-06-05T01:41:04;1.73;;;1.27;;
80854;SDS011;70272;49.222;-122.892;2023-06-05T01:43:31;2.17;;;1.50;;
80854;SDS011;70272;49.222;-122.892;2023-06-05T01:45:58;2.17;;;1.40;;
80854;SDS011;70272;49.222;-122.892;2023-06-05T01:48:25;1.83;;;1.20;;
80854;SDS011;70272;49.222;-122.892;2023-06-05T01:50:55;2.28;;;1.17;;
80854;SDS011;70272;49.222;-122.892;2023-06-05T01:53:22;2.05;;;1.20;;
80854;SDS011;70272;49.222;-122.892;2023-06-05T01:55:49;3.47;;;2.03;;
80854;SDS011;70272;49.222;-122.892;2023-06-05T01:58:18;1.95;;;1.40;;
80854;SDS011;70272;49.222;-122.892;2023-06-05T02:00:45;2.30;;;1.50;;
80854;SDS011;70272;49.222;-122.892;2023-06-05T02:03:13;2.25;;;1.30;;
80854;SDS011;70272;49.222;-122.892;2023-06-05T02:05:43;2.40;;;1.30;;
80854;SDS011;70272;49.222;-122.892;2023-06-05T02:08:09;2.75;;;1.50;;
80854;SDS011;70272;49.222;-122.892;2023-06-05T02:10:36;2.03;;;1.30;;
80854;SDS011;70272;49.222;-122.892;2023-06-05T02:13:08;2.53;;;1.40;;
80854;SDS011;70272;49.222;-122.892;2023-06-05T02:15:35;1.48;;;1.30;;
80854;SDS011;70272;49.222;-122.892;2023-06-05T02:18:02;1.50;;;1.20;;
80854;SDS011;70272;49.222;-122.892;2023-06-05T02:20:30;1.83;;;1.35;;
80854;SDS011;70272;49.222;-122.892;2023-06-05T02:22:57;2.17;;;1.40;;
80854;SDS011;70272;49.222;-122.892;2023-06-05T02:25:24;2.85;;;1.25;;
80854;SDS011;70272;49.222;-122.892;2023-06-05T02:27:54;11.60;;;1.67;;
80854;SDS011;70272;49.222;-122.892;2023-06-05T02:30:21;1.20;;;1.10;;
80854;SDS011;70272;49.222;-122.892;2023-06-05T02:32:47;1.73;;;1.30;;
80854;SDS011;70272;49.222;-122.892;2023-06-05T02:35:22;1.20;;;1.10;;
80854;SDS011;70272;49.222;-122.892;2023-06-05T02:37:49;2.08;;;1.35;;
80854;SDS011;70272;49.222;-122.892;2023-06-05T02:40:15;2.42;;;1.30;;
80854;SDS011;70272;49.222;-122.892;2023-06-05T02:42:42;1.67;;;1.25;;
80854;SDS011;70272;49.222;-122.892;2023-06-05T02:45:08;2.33;;;1.30;;
80854;SDS011;70272;49.222;-122.892;2023-06-05T02:47:35;1.50;;;1.15;;
80854;SDS011;70272;49.222;-122.892;2023-06-05T02:50:03;4.20;;;1.30;;
80854;SDS011;70272;49.222;-122.892;2023-06-05T02:52:29;2.13;;;1.30;;
80854;SDS011;70272;49.222;-122.892;2023-06-05T02:55:01;1.70;;;1.25;;
80854;SDS011;70272;49.222;-122.892;2023-06-05T02:57:28;1.30;;;1.20;;
80854;SDS011;70272;49.222;-122.892;2023-06-05T02:59:55;2.05;;;1.50;;
80854;SDS011;70272;49.222;-122.892;2023-06-05T03:02:21;2.08;;;1.52;;
80854;SDS011;70272;49.222;-122.892;2023-06-05T03:04:48;1.40;;;1.20;;
80854;SDS011;70272;49.222;-122.892;2023-06-05T03:07:19;1.58;;;1.10;;
80854;SDS011;70272;49.222;-122.892;2023-06-05T03:09:45;1.33;;;1.10;;
80854;SDS011;70272;49.222;-122.892;2023-06-05T03:12:11;2.22;;;1.15;;
80854;SDS011;70272;49.222;-122.892;2023-06-05T03:14:37;3.10;;;1.15;;
80854;SDS011;70272;49.222;-122.892;2023-06-05T03:17:04;1.90;;;1.10;;
80854;SDS011;70272;49.222;-122.892;2023-06-05T03:19:30;1.98;;;1.40;;
80854;SDS011;70272;49.222;-122.892;2023-06-05T03:21:56;3.00;;;1.10;;
80854;SDS011;70272;49.222;-122.892;2023-06-05T03:24:23;1.10;;;0.90;;
80854;SDS011;70272;49.222;-122.892;2023-06-05T03:26:50;1.88;;;1.25;;
80854;SDS011;70272;49.222;-122.892;2023-06-05T03:29:16;3.17;;;0.98;;
80854;SDS011;70272;49.222;-122.892;2023-06-05T03:31:42;2.90;;;1.20;;
80854;SDS011;70272;49.222;-122.892;2023-06-05T03:34:09;1.10;;;1.00;;
80854;SDS011;70272;49.222;-122.892;2023-06-05T03:36:35;1.55;;;1.20;;
80854;SDS011;70272;49.222;-122.892;2023-06-05T03:39:05;1.95;;;1.20;;
80854;SDS011;70272;49.222;-122.892;2023-06-05T03:41:32;2.50;;;1.33;;
80854;SDS011;70272;49.222;-122.892;2023-06-05T03:43:58;1.00;;;0.90;;
80854;SDS011;70272;49.222;-122.892;2023-06-05T03:46:24;1.35;;;1.20;;
80854;SDS011;70272;49.222;-122.892;2023-06-05T03:48:55;1.85;;;1.23;;
80854;SDS011;70272;49.222;-122.892;2023-06-05T03:51:27;3.30;;;1.10;;
80854;SDS011;70272;49.222;-122.892;2023-06-05T03:53:56;1.52;;;1.10;;
80854;SDS011;70272;49.222;-122.892;2023-06-05T03:56:27;2.00;;;1.23;;
80854;SDS011;70272;49.222;-122.892;2023-06-05T03:59:02;1.50;;;1.10;;
80854;SDS011;70272;49.222;-122.892;2023-06-05T04:01:41;2.40;;;1.20;;
80854;SDS011;70272;49.222;-122.892;2023-06-05T04:04:08;1.67;;;1.10;;
80854;SDS011;70272;49.222;-122.892;2023-06-05T04:06:35;2.30;;;1.30;;
80854;SDS011;70272;49.222;-122.892;2023-06-05T04:09:06;3.63;;;1.27;;
80854;SDS011;70272;49.222;-122.892;2023-06-05T04:14:08;1.63;;;1.13;;
80854;SDS011;70272;49.222;-122.892;2023-06-05T04:16:35;2.08;;;1.20;;
80854;SDS011;70272;49.222;-122.892;2023-06-05T04:19:09;1.92;;;1.30;;
80854;SDS011;70272;49.222;-122.892;2023-06-05T04:21:36;2.40;;;1.33;;
80854;SDS011;70272;49.222;-122.892;2023-06-05T04:24:07;2.70;;;1.50;;
80854;SDS011;70272;49.222;-122.892;2023-06-05T04:26:38;2.20;;;1.30;;
80854;SDS011;70272;49.222;-122.892;2023-06-05T04:29:08;3.65;;;1.52;;
80854;SDS011;70272;49.222;-122.892;2023-06-05T04:31:44;1.65;;;1.20;;
80854;SDS011;70272;49.222;-122.892;2023-06-05T04:34:12;1.77;;;1.25;;
80854;SDS011;70272;49.222;-122.892;2023-06-05T04:36:41;1.65;;;1.30;;
80854;SDS011;70272;49.222;-122.892;2023-06-05T04:39:08;2.00;;;1.20;;
80854;SDS011;70272;49.222;-122.892;2023-06-05T04:41:43;2.45;;;1.35;;
80854;SDS011;70272;49.222;-122.892;2023-06-05T04:44:13;1.70;;;1.30;;
80854;SDS011;70272;49.222;-122.892;2023-06-05T04:46:42;1.30;;;1.20;;
80854;SDS011;70272;49.222;-122.892;2023-06-05T04:49:12;1.63;;;1.20;;
80854;SDS011;70272;49.222;-122.892;2023-06-05T04:51:39;3.85;;;1.40;;
80854;SDS011;70272;49.222;-122.892;2023-06-05T04:54:06;1.90;;;1.40;;
80854;SDS011;70272;49.222;-122.892;2023-06-05T04:56:32;2.33;;;1.30;;
80854;SDS011;70272;49.222;-122.892;2023-06-05T04:59:00;2.97;;;1.40;;
80854;SDS011;70272;49.222;-122.892;2023-06-05T05:01:28;2.38;;;1.38;;
80854;SDS011;70272;49.222;-122.892;2023-06-05T05:03:54;2.65;;;1.50;;
80854;SDS011;70272;49.222;-122.892;2023-06-05T05:06:21;4.32;;;1.67;;
80854;SDS011;70272;49.222;-122.892;2023-06-05T05:08:48;2.28;;;1.55;;
80854;SDS011;70272;49.222;-122.892;2023-06-05T05:11:14;3.75;;;1.60;;
80854;SDS011;70272;49.222;-122.892;2023-06-05T05:13:41;2.17;;;1.50;;
80854;SDS011;70272;49.222;-122.892;2023-06-05T05:16:08;2.22;;;1.40;;
80854;SDS011;70272;49.222;-122.892;2023-06-05T05:18:37;2.92;;;1.60;;
80854;SDS011;70272;49.222;-122.892;2023-06-05T05:21:05;2.00;;;1.50;;
80854;SDS011;70272;49.222;-122.892;2023-06-05T05:23:32;3.03;;;1.42;;
80854;SDS011;70272;49.222;-122.892;2023-06-05T05:25:59;3.67;;;1.67;;
80854;SDS011;70272;49.222;-122.892;2023-06-05T05:28:27;4.20;;;1.70;;
80854;SDS011;70272;49.222;-122.892;2023-06-05T05:30:53;3.85;;;1.60;;
80854;SDS011;70272;49.222;-122.892;2023-06-05T05:33:23;2.45;;;1.30;;
80854;SDS011;70272;49.222;-122.892;2023-06-05T05:35:49;1.83;;;1.33;;
80854;SDS011;70272;49.222;-122.892;2023-06-05T05:38:15;2.53;;;1.40;;
80854;SDS011;70272;49.222;-122.892;2023-06-05T05:40:42;2.10;;;1.40;;
80854;SDS011;70272;49.222;-122.892;2023-06-05T05:43:08;2.38;;;1.50;;
80854;SDS011;70272;49.222;-122.892;2023-06-05T05:45:34;2.55;;;1.63;;
80854;SDS011;70272;49.222;-122.892;2023-06-05T05:48:04;2.05;;;1.60;;
80854;SDS011;70272;49.222;-122.892;2023-06-05T05:50:30;3.80;;;1.55;;
80854;SDS011;70272;49.222;-122.892;2023-06-05T05:52:56;2.92;;;1.65;;
80854;SDS011;70272;49.222;-122.892;2023-06-05T05:55:24;3.00;;;1.63;;
80854;SDS011;70272;49.222;-122.892;2023-06-05T05:57:50;3.03;;;1.60;;
80854;SDS011;70272;49.222;-122.892;2023-06-05T06:00:16;2.45;;;1.50;;
80854;SDS011;70272;49.222;-122.892;2023-06-05T06:02:43;3.95;;;1.50;;
80854;SDS011;70272;49.222;-122.892;2023-06-05T06:05:09;2.95;;;1.60;;
80854;SDS011;70272;49.222;-122.892;2023-06-05T06:07:37;3.38;;;1.73;;
80854;SDS011;70272;49.222;-122.892;2023-06-05T06:10:06;2.70;;;1.55;;
80854;SDS011;70272;49.222;-122.892;2023-06-05T06:12:33;2.50;;;1.80;;
80854;SDS011;70272;49.222;-122.892;2023-06-05T06:15:00;2.92;;;1.60;;
80854;SDS011;70272;49.222;-122.892;2023-06-05T06:17:26;2.45;;;1.50;;
80854;SDS011;70272;49.222;-122.892;2023-06-05T06:19:52;3.08;;;1.65;;
80854;SDS011;70272;49.222;-122.892;2023-06-05T06:22:19;2.92;;;2.25;;
80854;SDS011;70272;49.222;-122.892;2023-06-05T06:24:45;4.97;;;1.60;;
80854;SDS011;70272;49.222;-122.892;2023-06-05T06:27:12;2.83;;;1.50;;
80854;SDS011;70272;49.222;-122.892;2023-06-05T06:29:51;2.90;;;1.60;;
80854;SDS011;70272;49.222;-122.892;2023-06-05T06:32:20;3.42;;;1.50;;
80854;SDS011;70272;49.222;-122.892;2023-06-05T06:34:48;2.63;;;1.67;;
80854;SDS011;70272;49.222;-122.892;2023-06-05T06:37:14;1.98;;;1.30;;
80854;SDS011;70272;49.222;-122.892;2023-06-05T06:39:41;3.30;;;1.50;;
80854;SDS011;70272;49.222;-122.892;2023-06-05T06:42:08;4.50;;;1.40;;
80854;SDS011;70272;49.222;-122.892;2023-06-05T06:44:36;1.83;;;1.40;;
80854;SDS011;70272;49.222;-122.892;2023-06-05T06:47:02;3.58;;;1.60;;
80854;SDS011;70272;49.222;-122.892;2023-06-05T06:49:29;2.40;;;1.50;;
80854;SDS011;70272;49.222;-122.892;2023-06-05T06:51:56;3.38;;;1.60;;
80854;SDS011;70272;49.222;-122.892;2023-06-05T06:54:22;2.58;;;1.50;;
80854;SDS011;70272;49.222;-122.892;2023-06-05T06:56:50;4.47;;;1.52;;
80854;SDS011;70272;49.222;-122.892;2023-06-05T06:59:17;2.58;;;1.55;;
80854;SDS011;70272;49.222;-122.892;2023-06-05T07:01:44;2.00;;;1.50;;
80854;SDS011;70272;49.222;-122.892;2023-06-05T07:04:11;2.83;;;1.85;;
80854;SDS011;70272;49.222;-122.892;2023-06-05T07:06:49;2.85;;;1.60;;
80854;SDS011;70272;49.222;-122.892;2023-06-05T07:09:15;3.17;;;1.55;;
80854;SDS011;70272;49.222;-122.892;2023-06-05T07:11:41;3.72;;;1.80;;
80854;SDS011;70272;49.222;-122.892;2023-06-05T07:14:08;3.22;;;1.73;;
80854;SDS011;70272;49.222;-122.892;2023-06-05T07:16:34;2.85;;;1.90;;
80854;SDS011;70272;49.222;-122.892;2023-06-05T07:19:00;2.45;;;1.50;;
80854;SDS011;70272;49.222;-122.892;2023-06-05T07:21:28;2.70;;;1.42;;
80854;SDS011;70272;49.222;-122.892;2023-06-05T07:23:54;2.17;;;1.52;;
80854;SDS011;70272;49.222;-122.892;2023-06-05T07:26:20;3.28;;;1.52;;
80854;SDS011;70272;49.222;-122.892;2023-06-05T07:28:47;2.28;;;1.40;;
80854;SDS011;70272;49.222;-122.892;2023-06-05T07:31:14;4.18;;;1.50;;
80854;SDS011;70272;49.222;-122.892;2023-06-05T07:33:42;3.40;;;1.50;;
80854;SDS011;70272;49.222;-122.892;2023-06-05T07:36:08;3.55;;;1.77;;
80854;SDS011;70272;49.222;-122.892;2023-06-05T07:38:36;1.95;;;1.63;;
80854;SDS011;70272;49.222;-122.892;2023-06-05T07:41:04;2.22;;;1.40;;
80854;SDS011;70272;49.222;-122.892;2023-06-05T07:43:31;2.45;;;1.52;;
80854;SDS011;70272;49.222;-122.892;2023-06-05T07:45:57;2.13;;;1.50;;
80854;SDS011;70272;49.222;-122.892;2023-06-05T07:48:23;2.00;;;1.42;;
80854;SDS011;70272;49.222;-122.892;2023-06-05T07:50:50;2.92;;;1.70;;
80854;SDS011;70272;49.222;-122.892;2023-06-05T07:53:16;2.22;;;1.60;;
80854;SDS011;70272;49.222;-122.892;2023-06-05T07:55:42;2.17;;;1.50;;
80854;SDS011;70272;49.222;-122.892;2023-06-05T07:58:08;2.70;;;1.50;;
80854;SDS011;70272;49.222;-122.892;2023-06-05T08:00:35;1.80;;;1.48;;
80854;SDS011;70272;49.222;-122.892;2023-06-05T08:03:01;3.17;;;1.60;;
80854;SDS011;70272;49.222;-122.892;2023-06-05T08:05:27;3.42;;;1.67;;
80854;SDS011;70272;49.222;-122.892;2023-06-05T08:07:53;2.80;;;1.73;;
80854;SDS011;70272;49.222;-122.892;2023-06-05T08:10:20;2.92;;;1.63;;
80854;SDS011;70272;49.222;-122.892;2023-06-05T08:12:46;1.80;;;1.40;;
80854;SDS011;70272;49.222;-122.892;2023-06-05T08:15:13;2.10;;;1.50;;
80854;SDS011;70272;49.222;-122.892;2023-06-05T08:17:39;4.43;;;1.90;;
80854;SDS011;70272;49.222;-122.892;2023-06-05T08:20:05;1.60;;;1.23;;
80854;SDS011;70272;49.222;-122.892;2023-06-05T08:22:33;3.88;;;1.60;;
80854;SDS011;70272;49.222;-122.892;2023-06-05T08:25:01;2.00;;;1.70;;
80854;SDS011;70272;49.222;-122.892;2023-06-05T08:27:29;4.63;;;1.80;;
80854;SDS011;70272;49.222;-122.892;2023-06-05T08:29:56;2.58;;;1.20;;
80854;SDS011;70272;49.222;-122.892;2023-06-05T08:32:22;4.22;;;1.80;;
80854;SDS011;70272;49.222;-122.892;2023-06-05T08:34:48;2.55;;;1.30;;
80854;SDS011;70272;49.222;-122.892;2023-06-05T08:37:14;3.25;;;1.58;;
80854;SDS011;70272;49.222;-122.892;2023-06-05T08:39:41;6.63;;;1.60;;
80854;SDS011;70272;49.222;-122.892;2023-06-05T08:42:08;2.38;;;1.40;;
80854;SDS011;70272;49.222;-122.892;2023-06-05T08:44:36;4.00;;;1.23;;
80854;SDS011;70272;49.222;-122.892;2023-06-05T08:47:02;5.45;;;1.90;;
80854;SDS011;70272;49.222;-122.892;2023-06-05T08:49:30;2.92;;;1.60;;
80854;SDS011;70272;49.222;-122.892;2023-06-05T08:52:03;2.60;;;1.27;;
80854;SDS011;70272;49.222;-122.892;2023-06-05T08:54:41;2.78;;;1.35;;
80854;SDS011;70272;49.222;-122.892;2023-06-05T08:57:08;2.88;;;1.40;;
80854;SDS011;70272;49.222;-122.892;2023-06-05T08:59:36;3.05;;;1.20;;
80854;SDS011;70272;49.222;-122.892;2023-06-05T09:02:02;3.08;;;1.30;;
80854;SDS011;70272;49.222;-122.892;2023-06-05T09:04:29;3.78;;;1.40;;
80854;SDS011;70272;49.222;-122.892;2023-06-05T09:06:56;7.00;;;1.60;;
80854;SDS011;70272;49.222;-122.892;2023-06-05T09:09:24;3.33;;;1.45;;
80854;SDS011;70272;49.222;-122.892;2023-06-05T09:12:01;3.85;;;1.40;;
80854;SDS011;70272;49.222;-122.892;2023-06-05T09:14:28;3.95;;;1.60;;
80854;SDS011;70272;49.222;-122.892;2023-06-05T09:16:56;3.95;;;1.42;;
80854;SDS011;70272;49.222;-122.892;2023-06-05T09:19:23;7.38;;;2.05;;
80854;SDS011;70272;49.222;-122.892;2023-06-05T09:21:53;2.97;;;1.70;;
80854;SDS011;70272;49.222;-122.892;2023-06-05T09:24:23;5.03;;;1.60;;
80854;SDS011;70272;49.222;-122.892;2023-06-05T09:27:00;5.18;;;1.58;;
80854;SDS011;70272;49.222;-122.892;2023-06-05T09:34:55;3.63;;;1.40;;
80854;SDS011;70272;49.222;-122.892;2023-06-05T09:37:35;5.15;;;1.70;;
80854;SDS011;70272;49.222;-122.892;2023-06-05T09:40:02;4.00;;;1.60;;
80854;SDS011;70272;49.222;-122.892;2023-06-05T09:42:34;6.05;;;1.60;;
80854;SDS011;70272;49.222;-122.892;2023-06-05T09:45:01;5.63;;;1.63;;
80854;SDS011;70272;49.222;-122.892;2023-06-05T09:47:28;6.28;;;1.70;;
80854;SDS011;70272;49.222;-122.892;2023-06-05T09:49:54;5.72;;;1.60;;
80854;SDS011;70272;49.222;-122.892;2023-06-05T09:52:21;5.13;;;1.88;;
80854;SDS011;70272;49.222;-122.892;2023-06-05T09:54:47;2.90;;;1.30;;
80854;SDS011;70272;49.222;-122.892;2023-06-05T09:57:14;2.28;;;1.52;;
80854;SDS011;70272;49.222;-122.892;2023-06-05T09:59:53;2.67;;;1.75;;
80854;SDS011;70272;49.222;-122.892;2023-06-05T10:02:23;2.83;;;1.27;;
80854;SDS011;70272;49.222;-122.892;2023-06-05T10:07:22;3.75;;;1.50;;
80854;SDS011;70272;49.222;-122.892;2023-06-05T10:09:49;2.05;;;1.40;;
80854;SDS011;70272;49.222;-122.892;2023-06-05T10:12:16;5.07;;;1.70;;
80854;SDS011;70272;49.222;-122.892;2023-06-05T10:14:43;6.07;;;1.67;;
80854;SDS011;70272;49.222;-122.892;2023-06-05T10:17:12;2.05;;;1.23;;
80854;SDS011;70272;49.222;-122.892;2023-06-05T10:19:42;3.72;;;1.60;;
80854;SDS011;70272;49.222;-122.892;2023-06-05T10:22:10;3.83;;;1.55;;
80854;SDS011;70272;49.222;-122.892;2023-06-05T10:24:46;3.67;;;1.48;;
80854;SDS011;70272;49.222;-122.892;2023-06-05T10:36:29;3.92;;;1.92;;
80854;SDS011;70272;49.222;-122.892;2023-06-05T10:38:50;5.28;;;1.90;;
80854;SDS011;70272;49.222;-122.892;2023-06-05T10:41:17;3.53;;;1.45;;
80854;SDS011;70272;49.222;-122.892;2023-06-05T10:43:52;4.60;;;1.50;;
80854;SDS011;70272;49.222;-122.892;2023-06-05T10:46:31;3.75;;;1.27;;
80854;SDS011;70272;49.222;-122.892;2023-06-05T10:49:09;2.70;;;1.60;;
80854;SDS011;70272;49.222;-122.892;2023-06-05T10:51:46;3.80;;;1.67;;
80854;SDS011;70272;49.222;-122.892;2023-06-05T10:59:18;3.53;;;1.80;;
80854;SDS011;70272;49.222;-122.892;2023-06-05T11:07:19;4.82;;;1.60;;
80854;SDS011;70272;49.222;-122.892;2023-06-05T11:10:05;3.72;;;1.65;;
80854;SDS011;70272;49.222;-122.892;2023-06-05T11:15:05;2.20;;;1.42;;
80854;SDS011;70272;49.222;-122.892;2023-06-05T11:17:32;4.95;;;1.60;;
80854;SDS011;70272;49.222;-122.892;2023-06-05T11:25:24;3.88;;;1.60;;
80854;SDS011;70272;49.222;-122.892;2023-06-05T11:30:44;4.25;;;1.33;;
80854;SDS011;70272;49.222;-122.892;2023-06-05T11:33:15;3.33;;;1.60;;
80854;SDS011;70272;49.222;-122.892;2023-06-05T11:35:43;4.00;;;1.75;;
80854;SDS011;70272;49.222;-122.892;2023-06-05T11:40:37;4.88;;;2.08;;
80854;SDS011;70272;49.222;-122.892;2023-06-05T11:43:08;3.72;;;1.80;;
80854;SDS011;70272;49.222;-122.892;2023-06-05T11:45:36;6.22;;;2.30;;
80854;SDS011;70272;49.222;-122.892;2023-06-05T11:48:04;4.45;;;1.98;;
80854;SDS011;70272;49.222;-122.892;2023-06-05T11:50:34;2.80;;;1.55;;
80854;SDS011;70272;49.222;-122.892;2023-06-05T11:53:05;4.15;;;1.95;;
80854;SDS011;70272;49.222;-122.892;2023-06-05T11:55:32;3.00;;;1.50;;
80854;SDS011;70272;49.222;-122.892;2023-06-05T11:58:22;3.50;;;1.52;;
80854;SDS011;70272;49.222;-122.892;2023-06-05T12:00:49;5.13;;;2.17;;
80854;SDS011;70272;49.222;-122.892;2023-06-05T12:03:17;4.72;;;2.10;;
80854;SDS011;70272;49.222;-122.892;2023-06-05T12:05:49;4.18;;;1.52;;
80854;SDS011;70272;49.222;-122.892;2023-06-05T12:08:22;5.57;;;1.60;;
80854;SDS011;70272;49.222;-122.892;2023-06-05T12:10:53;4.68;;;1.70;;
80854;SDS011;70272;49.222;-122.892;2023-06-05T12:13:19;3.15;;;1.58;;
80854;SDS011;70272;49.222;-122.892;2023-06-05T12:15:58;3.85;;;1.60;;
80854;SDS011;70272;49.222;-122.892;2023-06-05T12:18:31;2.65;;;1.33;;
80854;SDS011;70272;49.222;-122.892;2023-06-05T12:20:59;2.60;;;1.50;;
80854;SDS011;70272;49.222;-122.892;2023-06-05T12:23:26;3.55;;;1.55;;
80854;SDS011;70272;49.222;-122.892;2023-06-05T12:26:00;4.35;;;1.60;;
80854;SDS011;70272;49.222;-122.892;2023-06-05T12:28:28;3.38;;;1.75;;
80854;SDS011;70272;49.222;-122.892;2023-06-05T12:30:56;4.15;;;1.90;;
80854;SDS011;70272;49.222;-122.892;2023-06-05T12:33:23;3.33;;;1.85;;
80854;SDS011;70272;49.222;-122.892;2023-06-05T12:36:03;7.25;;;2.20;;
80854;SDS011;70272;49.222;-122.892;2023-06-05T12:38:39;5.18;;;1.90;;
80854;SDS011;70272;49.222;-122.892;2023-06-05T12:41:09;4.18;;;2.03;;
80854;SDS011;70272;49.222;-122.892;2023-06-05T12:43:36;4.22;;;1.70;;
80854;SDS011;70272;49.222;-122.892;2023-06-05T12:46:02;3.75;;;1.90;;
80854;SDS011;70272;49.222;-122.892;2023-06-05T12:48:28;4.80;;;2.20;;
80854;SDS011;70272;49.222;-122.892;2023-06-05T12:50:55;5.05;;;1.85;;
80854;SDS011;70272;49.222;-122.892;2023-06-05T12:53:22;6.60;;;2.60;;
80854;SDS011;70272;49.222;-122.892;2023-06-05T12:55:48;4.30;;;3.38;;
80854;SDS011;70272;49.222;-122.892;2023-06-05T12:58:14;4.10;;;2.22;;
80854;SDS011;70272;49.222;-122.892;2023-06-05T13:00:41;5.95;;;2.50;;
80854;SDS011;70272;49.222;-122.892;2023-06-05T13:03:09;3.33;;;2.28;;
80854;SDS011;70272;49.222;-122.892;2023-06-05T13:05:35;4.10;;;2.58;;
80854;SDS011;70272;49.222;-122.892;2023-06-05T13:08:01;4.60;;;2.10;;
80854;SDS011;70272;49.222;-122.892;2023-06-05T13:10:28;5.60;;;2.30;;
80854;SDS011;70272;49.222;-122.892;2023-06-05T13:12:54;13.27;;;3.25;;
80854;SDS011;70272;49.222;-122.892;2023-06-05T13:15:21;5.28;;;2.40;;
80854;SDS011;70272;49.222;-122.892;2023-06-05T13:17:47;5.68;;;5.10;;
80854;SDS011;70272;49.222;-122.892;2023-06-05T13:20:15;6.10;;;3.13;;
80854;SDS011;70272;49.222;-122.892;2023-06-05T13:22:41;4.10;;;2.25;;
80854;SDS011;70272;49.222;-122.892;2023-06-05T13:25:08;5.80;;;3.80;;
80854;SDS011;70272;49.222;-122.892;2023-06-05T13:27:35;9.82;;;5.32;;
80854;SDS011;70272;49.222;-122.892;2023-06-05T13:30:01;6.40;;;3.53;;
80854;SDS011;70272;49.222;-122.892;2023-06-05T13:32:29;8.57;;;5.35;;
80854;SDS011;70272;49.222;-122.892;2023-06-05T13:34:56;6.13;;;4.32;;
80854;SDS011;70272;49.222;-122.892;2023-06-05T13:37:23;10.73;;;7.65;;
80854;SDS011;70272;49.222;-122.892;2023-06-05T13:39:49;11.23;;;6.18;;
80854;SDS011;70272;49.222;-122.892;2023-06-05T13:42:15;10.35;;;4.55;;
80854;SDS011;70272;49.222;-122.892;2023-06-05T13:44:43;5.18;;;2.53;;
80854;SDS011;70272;49.222;-122.892;2023-06-05T13:47:10;8.52;;;7.72;;
80854;SDS011;70272;49.222;-122.892;2023-06-05T13:49:36;12.02;;;8.23;;
80854;SDS011;70272;49.222;-122.892;2023-06-05T13:52:02;4.85;;;2.72;;
80854;SDS011;70272;49.222;-122.892;2023-06-05T13:54:28;5.95;;;4.70;;
80854;SDS011;70272;49.222;-122.892;2023-06-05T13:56:55;8.75;;;3.05;;
80854;SDS011;70272;49.222;-122.892;2023-06-05T13:59:21;16.20;;;13.85;;
80854;SDS011;70272;49.222;-122.892;2023-06-05T14:01:47;8.15;;;5.47;;
80854;SDS011;70272;49.222;-122.892;2023-06-05T14:04:13;3.85;;;3.30;;
80854;SDS011;70272;49.222;-122.892;2023-06-05T14:06:40;10.95;;;10.10;;
80854;SDS011;70272;49.222;-122.892;2023-06-05T14:09:07;24.15;;;22.45;;
80854;SDS011;70272;49.222;-122.892;2023-06-05T14:11:34;10.23;;;9.20;;
80854;SDS011;70272;49.222;-122.892;2023-06-05T14:14:01;12.48;;;11.43;;
80854;SDS011;70272;49.222;-122.892;2023-06-05T14:16:28;8.93;;;6.07;;
80854;SDS011;70272;49.222;-122.892;2023-06-05T14:18:54;15.20;;;13.85;;
80854;SDS011;70272;49.222;-122.892;2023-06-05T14:21:20;14.85;;;13.73;;
80854;SDS011;70272;49.222;-122.892;2023-06-05T14:23:47;5.40;;;3.97;;
80854;SDS011;70272;49.222;-122.892;2023-06-05T14:26:13;10.32;;;9.35;;
80854;SDS011;70272;49.222;-122.892;2023-06-05T14:28:39;9.02;;;8.18;;
80854;SDS011;70272;49.222;-122.892;2023-06-05T14:31:06;6.68;;;6.07;;
80854;SDS011;70272;49.222;-122.892;2023-06-05T14:33:32;7.32;;;3.70;;
80854;SDS011;70272;49.222;-122.892;2023-06-05T14:35:58;6.07;;;4.55;;
80854;SDS011;70272;49.222;-122.892;2023-06-05T14:38:24;5.80;;;2.97;;
80854;SDS011;70272;49.222;-122.892;2023-06-05T14:40:51;5.20;;;2.63;;
80854;SDS011;70272;49.222;-122.892;2023-06-05T14:43:18;3.90;;;3.15;;
80854;SDS011;70272;49.222;-122.892;2023-06-05T14:45:44;7.28;;;3.58;;
80854;SDS011;70272;49.222;-122.892;2023-06-05T14:48:10;5.88;;;4.30;;
80854;SDS011;70272;49.222;-122.892;2023-06-05T14:50:39;7.22;;;3.60;;
80854;SDS011;70272;49.222;-122.892;2023-06-05T14:53:06;7.53;;;6.05;;
80854;SDS011;70272;49.222;-122.892;2023-06-05T14:55:32;6.22;;;3.65;;
80854;SDS011;70272;49.222;-122.892;2023-06-05T14:57:58;7.90;;;3.30;;
80854;SDS011;70272;49.222;-122.892;2023-06-05T15:00:25;7.63;;;6.78;;
80854;SDS011;70272;49.222;-122.892;2023-06-05T15:02:51;6.10;;;2.80;;